Погода Мохалана неделю

Силезское воеводство, Польша

17 - 23 июля
  • 17июля
    Сегодня
    +16°
    +25°
    Облачно с прояснениями
    ВремяПогодаТемператураВлажностьДавлениеВетер, м/сВероятность осадков
    02:00Ясно и безоблачно+19°C97 %740 мм1.7 м/с2 %
    05:00Практически безоблачно+18°C99 %741 мм1.8 м/с2 %
    08:00Облачно с прояснениями+21°C79 %742 мм2.4 м/с4 %
    11:00Облачно с прояснениями+22°C55 %743 мм1.9 м/с28 %
    14:00Облачно с прояснениями+24°C58 %742 мм2.1 м/с40 %
    17:00Облачно с прояснениями+25°C54 %742 мм2.1 м/с19 %
    20:00Облачно с прояснениями+23°C63 %742 мм2.5 м/с16 %
    23:00Облачно с прояснениями+20°C75 %743 мм1.9 м/с36 %
  • 18июля
    Четверг
    +14°
    +26°
    Облачно с прояснениями
    ВремяПогодаТемператураВлажностьДавлениеВетер, м/сВероятность осадков
    02:00Ясно и безоблачно+18°C88 %743 мм1.9 м/с2 %
    05:00Ясно и безоблачно+16°C87 %744 мм2.1 м/с2 %
    08:00Ясно и безоблачно+20°C70 %745 мм2.0 м/с2 %
    11:00Ясно и безоблачно+23°C50 %745 мм2.5 м/с2 %
    14:00Облачно с прояснениями+26°C42 %744 мм2.8 м/с4 %
    17:00Небольшая облачность+26°C44 %744 мм3.5 м/с2 %
    20:00Практически безоблачно+23°C54 %744 мм2.7 м/с2 %
    23:00Облачно с прояснениями+19°C68 %744 мм2.1 м/с2 %
  • 19июля
    Пятница
    +14°
    +27°
    Облачно с прояснениями
    ВремяПогодаТемператураВлажностьДавлениеВетер, м/сВероятность осадков
    02:00Облачно с прояснениями+16°C79 %744 мм2.1 м/с2 %
    05:00Небольшая облачность+15°C85 %744 мм2.0 м/с2 %
    08:00Облачно с прояснениями+20°C68 %744 мм1.2 м/с2 %
    11:00Облачно с прояснениями+24°C49 %744 мм1.8 м/с2 %
    14:00Облачно с прояснениями+26°C42 %743 мм1.6 м/с2 %
    17:00Облачно с прояснениями+26°C38 %742 мм2.8 м/с2 %
    20:00Практически безоблачно+23°C50 %742 мм2.1 м/с2 %
    23:00Ясно и безоблачно+19°C59 %742 мм2.9 м/с2 %
  • 20июля
    Суббота
    +15°
    +27°
    Облачно с прояснениями
    ВремяПогодаТемператураВлажностьДавлениеВетер, м/сВероятность осадков
    02:00Практически безоблачно+17°C67 %741 мм2.6 м/с2 %
    05:00Ясно и безоблачно+15°C75 %740 мм2.0 м/с2 %
    08:00Ясно и безоблачно+20°C62 %741 мм1.4 м/с2 %
    11:00Небольшая облачность+24°C42 %741 мм1.6 м/с2 %
    14:00Облачно с прояснениями+26°C37 %740 мм1.2 м/с2 %
    17:00Облачно с прояснениями+27°C35 %739 мм1.1 м/с2 %
    20:00Небольшая облачность+24°C56 %738 мм1.0 м/с2 %
    23:00Ясно и безоблачно+19°C64 %738 мм0.9 м/с2 %
  • 21июля
    Воскресенье
    +18°
    +29°
    Ясно и безоблачно
    ВремяПогодаТемператураВлажностьДавлениеВетер, м/сВероятность осадков
    02:00Ясно и безоблачно+18°C65 %738 мм2.4 м/с2 %
    05:00Ясно и безоблачно+15°C76 %737 мм2.0 м/с2 %
    08:00Ясно и безоблачно+22°C62 %737 мм0.9 м/с2 %
    11:00Ясно и безоблачно+26°C36 %737 мм2.2 м/с2 %
    14:00Ясно и безоблачно+28°C33 %736 мм3.2 м/с2 %
    17:00Ясно и безоблачно+29°C31 %735 мм3.5 м/с2 %
    20:00Ясно и безоблачно+26°C47 %734 мм1.8 м/с6 %
    23:00Ясно и безоблачно+21°C58 %733 мм2.6 м/с4 %
Мы используем cookies
Соглашаюсь